createdAt,value
2023-04-21T00:00:33.418Z,25.00
2023-04-21T00:01:33.605Z,30.80
2023-04-21T00:02:35.864Z,26.10
2023-04-21T00:03:34.343Z,21.20
2023-04-21T00:04:34.350Z,27.80
2023-04-21T00:05:34.575Z,22.60
2023-04-21T00:06:41.702Z,22.10
2023-04-21T00:07:34.952Z,25.00
2023-04-21T00:08:35.157Z,23.80
2023-04-21T00:09:35.331Z,26.80
2023-04-21T00:10:35.518Z,25.50
2023-04-21T00:11:35.690Z,23.60
2023-04-21T00:12:35.894Z,25.00
2023-04-21T00:13:36.109Z,25.60
2023-04-21T00:14:36.266Z,21.10
2023-04-21T00:15:36.435Z,21.60
2023-04-21T00:16:36.732Z,22.90
2023-04-21T00:17:36.883Z,28.50
2023-04-21T00:18:37.144Z,27.00
2023-04-21T00:19:37.351Z,27.10
2023-04-21T00:20:37.513Z,23.40
2023-04-21T00:21:37.677Z,25.70
2023-04-21T00:22:37.958Z,27.20
2023-04-21T00:23:38.118Z,22.20
2023-04-21T00:24:38.430Z,22.90
2023-04-21T00:25:38.604Z,20.00
2023-04-21T00:26:38.804Z,23.60
2023-04-21T00:27:38.995Z,27.90
2023-04-21T00:28:39.181Z,22.10
2023-04-21T00:29:39.370Z,26.40
2023-04-21T00:30:39.558Z,22.10
2023-04-21T00:31:39.786Z,22.50
2023-04-21T00:32:40.067Z,23.90
2023-04-21T00:33:40.216Z,27.20
2023-04-21T00:34:40.418Z,24.70
2023-04-21T00:35:40.610Z,25.20
2023-04-21T00:36:40.806Z,25.40
2023-04-21T00:37:40.997Z,28.20
2023-04-21T00:38:41.218Z,28.40
2023-04-21T00:39:41.416Z,24.30
2023-04-21T00:40:41.809Z,22.60
2023-04-21T00:41:41.895Z,22.60
2023-04-21T00:42:42.106Z,23.20
2023-04-21T00:43:42.338Z,26.30
2023-04-21T00:44:42.542Z,20.90
2023-04-21T00:45:42.727Z,22.70
2023-04-21T00:46:42.961Z,26.60
2023-04-21T00:47:43.163Z,25.90
2023-04-21T00:48:43.300Z,22.50
2023-04-21T00:49:43.488Z,23.00
2023-04-21T00:50:43.696Z,23.90
2023-04-21T00:51:43.848Z,34.00
2023-04-21T00:52:44.139Z,17.10
2023-04-21T00:53:44.317Z,28.20
2023-04-21T00:54:44.551Z,28.20
2023-04-21T00:55:44.733Z,24.60
2023-04-21T00:56:45.117Z,25.70
2023-04-21T00:57:45.305Z,25.60
2023-04-21T00:58:45.489Z,22.80
2023-04-21T00:59:45.688Z,24.90
2023-04-21T01:00:45.893Z,31.40
2023-04-21T01:01:46.123Z,21.90
2023-04-21T01:02:46.447Z,26.10
2023-04-21T01:03:46.811Z,23.90
2023-04-21T01:04:46.788Z,30.60
2023-04-21T01:05:46.956Z,26.90
2023-04-21T01:06:47.143Z,26.10
2023-04-21T01:07:47.469Z,25.40
2023-04-21T01:08:47.532Z,25.60
2023-04-21T01:09:47.726Z,23.00
2023-04-21T01:10:47.906Z,25.80
2023-04-21T01:11:48.078Z,25.00
2023-04-21T01:12:48.371Z,24.50
2023-04-21T01:13:48.554Z,19.60
2023-04-21T01:14:48.882Z,24.40
2023-04-21T01:15:49.065Z,24.00
2023-04-21T01:16:49.397Z,21.10
2023-04-21T01:17:49.618Z,25.40
2023-04-21T01:18:49.821Z,23.90
2023-04-21T01:19:50.054Z,23.30
2023-04-21T01:20:50.220Z,26.10
2023-04-21T01:21:50.409Z,19.40
2023-04-21T01:22:50.648Z,23.90
2023-04-21T01:23:50.813Z,18.80
2023-04-21T01:24:51.059Z,24.70
2023-04-21T01:25:51.262Z,24.90
2023-04-21T01:26:51.446Z,25.50
2023-04-21T01:27:51.719Z,23.00
2023-04-21T01:28:52.024Z,22.20
2023-04-21T01:29:52.231Z,26.30
2023-04-21T01:30:52.399Z,26.90
2023-04-21T01:31:52.599Z,26.20
2023-04-21T01:32:52.892Z,22.60
2023-04-21T01:33:53.082Z,23.00
2023-04-21T01:34:53.285Z,23.10
2023-04-21T01:35:53.463Z,21.60
2023-04-21T01:36:53.675Z,27.40
2023-04-21T01:37:53.846Z,25.30
2023-04-21T01:38:54.163Z,22.70
2023-04-21T01:39:54.409Z,23.40
2023-04-21T01:40:54.563Z,24.70
2023-04-21T01:41:54.752Z,25.30
2023-04-21T01:42:54.952Z,24.00
2023-04-21T01:43:55.157Z,23.70
2023-04-21T01:44:55.430Z,27.20
2023-04-21T01:45:56.025Z,24.00
2023-04-21T01:46:55.888Z,21.10
2023-04-21T01:47:56.110Z,26.90
2023-04-21T01:48:56.349Z,21.70
2023-04-21T01:49:56.533Z,26.20
2023-04-21T01:50:56.822Z,25.60
2023-04-21T01:51:57.043Z,20.00
2023-04-21T01:52:57.261Z,24.50
2023-04-21T01:53:57.429Z,21.10
2023-04-21T01:54:57.748Z,22.00
2023-04-21T01:55:57.923Z,20.20
2023-04-21T01:56:58.286Z,23.10
2023-04-21T01:57:58.424Z,24.10
2023-04-21T01:58:58.608Z,23.70
2023-04-21T01:59:58.814Z,23.50
2023-04-21T02:00:59.066Z,24.20
2023-04-21T02:01:59.226Z,21.60
2023-04-21T02:02:59.614Z,24.80
2023-04-21T02:04:00.094Z,20.20
2023-04-21T02:05:00.064Z,21.90
2023-04-21T02:06:00.267Z,24.50
2023-04-21T02:07:00.471Z,22.80
2023-04-21T02:08:00.641Z,20.30
2023-04-21T02:09:00.925Z,26.60
2023-04-21T02:10:01.141Z,25.80
2023-04-21T02:11:01.370Z,25.20
2023-04-21T02:12:01.522Z,29.40
2023-04-21T02:13:01.860Z,27.90
2023-04-21T02:14:02.037Z,27.50
2023-04-21T02:15:02.353Z,25.90
2023-04-21T02:16:12.843Z,29.90
2023-04-21T02:17:03.835Z,28.40
2023-04-21T02:18:03.027Z,29.80
2023-04-21T02:19:03.225Z,34.00
2023-04-21T02:20:04.251Z,32.30
2023-04-21T02:21:03.652Z,28.80
2023-04-21T02:22:03.823Z,30.00
2023-04-21T02:23:04.130Z,28.70
2023-04-21T02:24:04.309Z,27.20
2023-04-21T02:25:04.587Z,28.70
2023-04-21T02:26:04.793Z,24.70
2023-04-21T02:27:04.987Z,28.90
2023-04-21T02:28:05.173Z,30.00
2023-04-21T02:29:05.352Z,30.90
2023-04-21T02:30:05.582Z,27.60
2023-04-21T02:31:05.825Z,29.40
2023-04-21T02:33:06.350Z,24.00
2023-04-21T02:34:06.496Z,28.00
2023-04-21T02:35:06.801Z,21.60
2023-04-21T02:36:06.955Z,26.80
2023-04-21T02:37:07.248Z,25.20
2023-04-21T02:38:07.543Z,22.30
2023-04-21T02:39:07.735Z,23.30
2023-04-21T02:40:07.959Z,26.40
2023-04-21T02:41:08.110Z,25.00
2023-04-21T02:42:08.430Z,28.00
2023-04-21T02:43:08.656Z,23.90
2023-04-21T02:44:08.849Z,24.50
2023-04-21T02:45:09.056Z,21.90
2023-04-21T02:46:09.304Z,22.70
2023-04-21T02:47:09.504Z,23.00
2023-04-21T02:48:09.832Z,18.30
2023-04-21T02:49:09.933Z,22.70
2023-04-21T02:50:10.149Z,21.40
2023-04-21T02:51:10.328Z,26.40
2023-04-21T02:52:10.528Z,24.10
2023-04-21T02:53:10.701Z,20.20
2023-04-21T02:54:10.991Z,25.20
2023-04-21T02:55:11.198Z,22.30
2023-04-21T02:56:11.402Z,22.10
2023-04-21T02:57:11.596Z,25.90
2023-04-21T02:58:11.883Z,26.90
2023-04-21T02:59:12.045Z,21.90
2023-04-21T03:00:12.412Z,22.00
2023-04-21T03:01:12.593Z,23.50
2023-04-21T03:02:12.978Z,23.40
2023-04-21T03:03:13.220Z,22.60
2023-04-21T03:04:13.438Z,23.60
2023-04-21T03:05:13.560Z,22.20
2023-04-21T03:06:13.771Z,26.10
2023-04-21T03:07:14.929Z,24.10
2023-04-21T03:08:14.217Z,21.60
2023-04-21T03:09:14.421Z,21.30
2023-04-21T03:10:14.653Z,22.10
2023-04-21T03:11:14.831Z,21.50
2023-04-21T03:12:15.052Z,19.80
2023-04-21T03:13:15.238Z,25.30
2023-04-21T03:14:15.540Z,19.50
2023-04-21T03:15:15.727Z,23.30
2023-04-21T03:16:15.967Z,23.20
2023-04-21T03:17:16.121Z,19.70
2023-04-21T03:18:16.412Z,16.90
2023-04-21T03:19:16.754Z,24.00
2023-04-21T03:20:16.882Z,25.00
2023-04-21T03:21:17.063Z,20.30
2023-04-21T03:22:17.387Z,18.50
2023-04-21T03:23:17.572Z,22.30
2023-04-21T03:24:17.804Z,24.40
2023-04-21T03:25:18.050Z,25.50
2023-04-21T03:26:18.255Z,22.70
2023-04-21T03:27:18.459Z,19.20
2023-04-21T03:28:18.702Z,23.60
2023-04-21T03:29:19.136Z,20.70
2023-04-21T03:30:19.332Z,23.70
2023-04-21T03:31:19.457Z,21.20
2023-04-21T03:32:19.763Z,20.00
2023-04-21T03:33:19.866Z,19.50
2023-04-21T03:34:20.119Z,25.30
2023-04-21T03:35:20.376Z,23.70
2023-04-21T03:36:20.630Z,20.20
2023-04-21T03:37:20.866Z,21.40
2023-04-21T03:38:21.096Z,24.80
2023-04-21T03:39:21.396Z,23.10
2023-04-21T03:40:21.634Z,24.60
2023-04-21T03:41:21.818Z,21.30
2023-04-21T03:42:22.026Z,17.80
2023-04-21T03:43:22.243Z,22.40
2023-04-21T03:44:22.538Z,19.90
2023-04-21T03:45:22.804Z,22.80
2023-04-21T03:46:23.028Z,20.60
2023-04-21T03:47:23.186Z,22.40
2023-04-21T03:48:23.502Z,19.50
2023-04-21T03:49:23.901Z,20.20
2023-04-21T03:50:24.029Z,20.20
2023-04-21T03:51:24.214Z,22.00
2023-04-21T03:52:24.521Z,24.30
2023-04-21T03:53:24.733Z,25.90
2023-04-21T03:54:24.916Z,25.70
2023-04-21T03:55:25.151Z,20.80
2023-04-21T03:56:25.333Z,22.70
2023-04-21T03:57:25.531Z,22.70
2023-04-21T03:58:25.719Z,22.50
2023-04-21T03:59:25.923Z,20.80
2023-04-21T04:00:26.140Z,22.90
2023-04-21T04:01:26.368Z,20.60
2023-04-21T04:02:26.641Z,20.80
2023-04-21T04:03:27.060Z,23.40
2023-04-21T04:04:27.213Z,27.40
2023-04-21T04:05:27.388Z,25.50
2023-04-21T04:06:27.544Z,20.30
2023-04-21T04:07:27.761Z,22.20
2023-04-21T04:08:27.938Z,22.40
2023-04-21T04:09:28.130Z,21.20
2023-04-21T04:10:28.444Z,19.90
2023-04-21T04:11:28.634Z,23.80
2023-04-21T04:12:28.951Z,24.40
2023-04-21T04:13:29.130Z,21.80
2023-04-21T04:14:29.521Z,20.10
2023-04-21T04:15:29.677Z,22.00
2023-04-21T04:16:30.021Z,19.00
2023-04-21T04:17:30.135Z,21.70
2023-04-21T04:18:30.414Z,24.50
2023-04-21T04:19:30.658Z,22.30
2023-04-21T04:20:30.869Z,22.10
2023-04-21T04:21:31.070Z,22.60
2023-04-21T04:22:31.254Z,18.30
2023-04-21T04:23:31.532Z,23.10
2023-04-21T04:24:31.864Z,21.70
2023-04-21T04:25:32.113Z,19.20
2023-04-21T04:26:32.310Z,23.80
2023-04-21T04:27:32.513Z,25.00
2023-04-21T04:28:32.683Z,18.30
2023-04-21T04:29:32.856Z,23.20
2023-04-21T04:30:33.212Z,25.50
2023-04-21T04:31:33.448Z,21.40
2023-04-21T04:32:33.653Z,21.50
2023-04-21T04:33:33.856Z,21.00
2023-04-21T04:34:34.033Z,21.50
2023-04-21T04:35:34.258Z,24.80
2023-04-21T04:36:34.482Z,21.90
2023-04-21T04:37:34.662Z,25.90
2023-04-21T04:38:34.957Z,25.70
2023-04-21T04:39:35.137Z,18.20
2023-04-21T04:40:35.490Z,22.10
2023-04-21T04:41:35.685Z,22.70
2023-04-21T04:42:35.884Z,19.90
2023-04-21T04:43:36.064Z,22.20
2023-04-21T04:44:36.390Z,25.60
2023-04-21T04:45:36.583Z,23.00
2023-04-21T04:46:36.824Z,20.20
2023-04-21T04:47:37.010Z,24.40
2023-04-21T04:48:37.213Z,22.50
2023-04-21T04:49:37.400Z,22.50
2023-04-21T04:50:37.741Z,24.60
2023-04-21T04:51:37.899Z,22.10
2023-04-21T04:52:38.097Z,21.30
2023-04-21T04:53:38.482Z,27.10
2023-04-21T04:54:38.568Z,24.60
2023-04-21T04:55:38.846Z,20.70
2023-04-21T04:56:39.030Z,21.20
2023-04-21T04:57:39.250Z,21.20
2023-04-21T04:58:39.461Z,23.70
2023-04-21T04:59:39.647Z,20.40
2023-04-21T05:00:39.941Z,21.20
2023-04-21T05:01:47.216Z,22.70
2023-04-21T05:02:40.705Z,24.40
2023-04-21T05:03:41.868Z,23.00
2023-04-21T05:04:40.919Z,19.60
2023-04-21T05:05:41.133Z,22.70
2023-04-21T05:06:41.342Z,21.70
2023-04-21T05:07:41.522Z,20.80
2023-04-21T05:08:41.734Z,22.90
2023-04-21T05:09:41.894Z,22.20
2023-04-21T05:10:42.142Z,18.30
2023-04-21T05:11:42.308Z,24.00
2023-04-21T05:12:42.504Z,23.20
2023-04-21T05:13:42.686Z,21.90
2023-04-21T05:14:42.874Z,21.10
2023-04-21T05:15:43.083Z,26.70
2023-04-21T05:16:43.295Z,21.30
2023-04-21T05:17:43.457Z,21.30
2023-04-21T05:18:43.644Z,29.60
2023-04-21T05:19:43.808Z,25.20
2023-04-21T05:20:44.014Z,21.30
2023-04-21T05:21:44.200Z,22.70
2023-04-21T05:22:44.373Z,23.00
2023-04-21T05:23:44.558Z,22.20
2023-04-21T05:24:44.841Z,26.40
2023-04-21T05:25:45.167Z,23.50
2023-04-21T05:26:45.343Z,22.70
2023-04-21T05:27:45.635Z,20.90
2023-04-21T05:28:45.825Z,20.50
2023-04-21T05:29:46.138Z,22.70
2023-04-21T05:30:46.325Z,23.50
2023-04-21T05:31:46.532Z,22.60
2023-04-21T05:32:46.767Z,20.90
2023-04-21T05:33:46.911Z,30.50
2023-04-21T05:34:47.098Z,25.50
2023-04-21T05:35:47.313Z,27.40
2023-04-21T05:36:47.490Z,24.60
2023-04-21T05:37:47.787Z,24.00
2023-04-21T05:38:47.957Z,26.40
2023-04-21T05:39:48.260Z,25.00
2023-04-21T05:40:48.434Z,25.70
2023-04-21T05:41:48.616Z,19.70
2023-04-21T05:42:48.897Z,26.60
2023-04-21T05:43:49.105Z,25.70
2023-04-21T05:44:49.273Z,26.20
2023-04-21T05:45:49.597Z,26.10
2023-04-21T05:46:49.731Z,20.90
2023-04-21T05:47:50.113Z,29.50
2023-04-21T05:48:50.278Z,25.80
2023-04-21T05:49:50.625Z,23.30
2023-04-21T05:50:50.755Z,22.70
2023-04-21T05:51:50.930Z,26.60
2023-04-21T05:52:51.099Z,31.30
2023-04-21T05:53:51.270Z,33.80
2023-04-21T05:54:51.466Z,22.70
2023-04-21T05:55:51.742Z,24.40
2023-04-21T05:56:51.949Z,33.60
2023-04-21T05:57:52.102Z,26.00
2023-04-21T05:58:52.272Z,24.10
2023-04-21T05:59:52.441Z,25.30
2023-04-21T06:00:52.633Z,22.20
2023-04-21T06:01:52.818Z,23.30
2023-04-21T06:02:53.043Z,22.50
2023-04-21T06:03:53.323Z,26.70
2023-04-21T06:04:53.540Z,25.10
2023-04-21T06:05:53.613Z,26.90
2023-04-21T06:06:53.775Z,25.10
2023-04-21T06:07:53.931Z,23.80
2023-04-21T06:08:54.104Z,25.30
2023-04-21T06:09:54.266Z,27.80
2023-04-21T06:10:54.454Z,24.00
2023-04-21T06:11:54.616Z,23.50
2023-04-21T06:12:54.780Z,33.10
2023-04-21T06:13:55.029Z,28.00
2023-04-21T06:14:55.181Z,25.10
2023-04-21T06:15:55.589Z,24.40
2023-04-21T06:16:55.644Z,34.90
2023-04-21T06:17:55.823Z,36.40
2023-04-21T06:18:55.988Z,32.20
2023-04-21T06:19:56.177Z,30.60
2023-04-21T06:20:56.356Z,28.10
2023-04-21T06:21:56.523Z,29.40
2023-04-21T06:22:56.694Z,38.30
2023-04-21T06:23:56.863Z,27.70
2023-04-21T06:24:58.295Z,31.40
2023-04-21T06:25:57.212Z,29.10
2023-04-21T06:26:57.397Z,29.50
2023-04-21T06:27:57.560Z,28.20
2023-04-21T06:28:57.734Z,32.40
2023-04-21T06:29:57.926Z,27.70
2023-04-21T06:30:58.054Z,22.80
2023-04-21T06:31:58.311Z,26.20
2023-04-21T06:32:58.550Z,30.80
2023-04-21T06:33:58.677Z,27.00
2023-04-21T06:34:58.834Z,26.30
2023-04-21T06:35:58.994Z,27.70
2023-04-21T06:36:59.135Z,23.80
2023-04-21T06:37:59.404Z,23.30
2023-04-21T06:38:59.531Z,22.30
2023-04-21T06:39:59.684Z,22.80
2023-04-21T06:40:59.859Z,21.70
2023-04-21T06:41:59.994Z,24.20
2023-04-21T06:43:00.134Z,29.60
2023-04-21T06:44:00.386Z,26.70
2023-04-21T06:45:00.515Z,27.60
2023-04-21T06:46:00.673Z,22.90
2023-04-21T06:47:00.865Z,19.70
2023-04-21T06:48:01.045Z,19.20
2023-04-21T06:49:01.160Z,22.40
2023-04-21T06:50:01.465Z,22.70
2023-04-21T06:51:01.571Z,21.30
2023-04-21T06:52:01.695Z,27.10
2023-04-21T06:53:01.962Z,26.30
2023-04-21T06:54:02.109Z,23.90
2023-04-21T06:55:02.231Z,24.70
2023-04-21T06:56:02.371Z,22.40
2023-04-21T06:57:02.519Z,18.70
2023-04-21T06:58:02.662Z,18.40
2023-04-21T06:59:02.797Z,20.50
2023-04-21T07:00:02.933Z,23.10
2023-04-21T07:01:03.127Z,19.20
2023-04-21T07:02:03.302Z,21.20
2023-04-21T07:03:03.497Z,20.40
2023-04-21T07:04:03.686Z,25.60
2023-04-21T07:05:03.664Z,25.90
2023-04-21T07:06:03.839Z,24.10
2023-04-21T07:07:03.976Z,20.60
2023-04-21T07:08:04.105Z,21.00
2023-04-21T07:09:04.242Z,24.30
2023-04-21T07:10:04.364Z,20.10
2023-04-21T07:11:04.597Z,18.50
2023-04-21T07:12:04.711Z,19.80
2023-04-21T07:13:04.824Z,19.80
2023-04-21T07:14:04.913Z,19.10
2023-04-21T07:15:05.049Z,19.80
2023-04-21T07:16:05.153Z,19.90
2023-04-21T07:17:05.349Z,19.80
2023-04-21T07:18:05.547Z,21.10
2023-04-21T07:19:05.627Z,20.40
2023-04-21T07:20:05.812Z,21.20
2023-04-21T07:21:05.931Z,20.90
2023-04-21T07:22:06.060Z,21.70
2023-04-21T07:23:06.193Z,19.60
2023-04-21T07:24:06.291Z,24.10
2023-04-21T07:25:06.451Z,18.10
2023-04-21T07:26:06.534Z,22.70
2023-04-21T07:27:06.663Z,21.00
2023-04-21T07:28:06.760Z,20.60
2023-04-21T07:29:06.850Z,19.60
2023-04-21T07:30:06.998Z,21.70
2023-04-21T07:31:07.159Z,22.80
2023-04-21T07:32:07.229Z,19.70
2023-04-21T07:33:07.386Z,22.40
2023-04-21T07:34:07.466Z,21.60
2023-04-21T07:35:07.789Z,24.60
2023-04-21T07:36:07.753Z,20.70
2023-04-21T07:37:07.860Z,22.10
2023-04-21T07:38:07.945Z,17.40
2023-04-21T07:39:08.168Z,19.00
2023-04-21T07:40:08.247Z,18.40
2023-04-21T07:41:08.420Z,24.70
2023-04-21T07:42:08.543Z,19.40
2023-04-21T07:43:08.612Z,19.80
2023-04-21T07:44:08.691Z,22.90
2023-04-21T07:45:08.911Z,19.80
2023-04-21T07:46:09.030Z,20.40
2023-04-21T07:47:09.144Z,20.90
2023-04-21T07:48:09.233Z,18.40
2023-04-21T07:49:09.403Z,19.80
2023-04-21T07:50:09.501Z,21.40
2023-04-21T07:51:09.605Z,21.30
2023-04-21T07:52:09.669Z,22.00
2023-04-21T07:53:09.820Z,30.20
2023-04-21T07:54:09.911Z,19.00
2023-04-21T07:55:10.015Z,21.60
2023-04-21T07:56:10.093Z,17.50
2023-04-21T07:57:10.190Z,22.90
2023-04-21T07:58:10.300Z,19.80
2023-04-21T07:59:10.544Z,20.70
2023-04-21T08:00:10.550Z,21.60
2023-04-21T08:01:10.643Z,15.70
2023-04-21T08:02:10.760Z,22.20
2023-04-21T08:03:11.004Z,20.00
2023-04-21T08:04:11.216Z,19.30
2023-04-21T08:05:11.331Z,26.30
2023-04-21T08:06:11.469Z,20.10
2023-04-21T08:07:11.533Z,21.00
2023-04-21T08:08:11.604Z,20.20
2023-04-21T08:09:11.695Z,20.80
2023-04-21T08:10:11.786Z,21.10
2023-04-21T08:11:12.170Z,28.00
2023-04-21T08:12:11.931Z,24.20
2023-04-21T08:13:12.420Z,19.80
2023-04-21T08:14:12.187Z,21.80
2023-04-21T08:15:12.295Z,22.10
2023-04-21T08:16:12.444Z,19.00
2023-04-21T08:17:12.485Z,23.20
2023-04-21T08:18:12.622Z,23.80
2023-04-21T08:19:12.670Z,21.80
2023-04-21T08:20:12.760Z,21.30
2023-04-21T08:21:12.829Z,17.40
2023-04-21T08:22:12.923Z,25.50
2023-04-21T08:23:13.347Z,19.70
2023-04-21T08:24:13.147Z,20.10
2023-04-21T08:25:13.228Z,22.50
2023-04-21T08:26:13.268Z,21.30
2023-04-21T08:27:13.356Z,24.20
2023-04-21T08:28:13.444Z,22.60
2023-04-21T08:29:13.536Z,16.60
2023-04-21T08:30:13.582Z,21.40
2023-04-21T08:31:13.660Z,13.60
2023-04-21T08:32:13.789Z,23.10
2023-04-21T08:33:14.174Z,17.50
2023-04-21T08:34:13.901Z,19.10
2023-04-21T08:35:14.004Z,19.60
2023-04-21T08:36:26.168Z,19.10
2023-04-21T08:37:15.191Z,19.60
2023-04-21T08:38:14.253Z,27.00
2023-04-21T08:39:14.301Z,19.40
2023-04-21T08:40:14.349Z,18.80
2023-04-21T08:41:14.403Z,22.20
2023-04-21T08:42:14.451Z,22.80
2023-04-21T08:43:14.528Z,19.30
2023-04-21T08:44:14.566Z,21.00
2023-04-21T08:45:14.631Z,20.50
2023-04-21T08:46:14.729Z,18.10
2023-04-21T08:47:14.745Z,15.20
2023-04-21T08:48:14.815Z,19.10
2023-04-21T08:49:14.838Z,17.50
2023-04-21T08:50:14.858Z,18.60
2023-04-21T08:51:14.948Z,21.10
2023-04-21T08:52:14.998Z,21.40
2023-04-21T08:53:15.037Z,20.90
2023-04-21T08:54:15.086Z,17.20
2023-04-21T08:55:15.129Z,18.40
2023-04-21T08:56:15.148Z,23.90
2023-04-21T08:57:16.272Z,17.20
2023-04-21T08:58:15.235Z,29.30
2023-04-21T08:59:15.271Z,18.70
2023-04-21T09:00:15.326Z,17.00
2023-04-21T09:01:15.426Z,18.30
2023-04-21T09:02:15.562Z,19.10
2023-04-21T09:03:25.033Z,26.90
2023-04-21T09:04:16.949Z,22.00
2023-04-21T09:05:16.117Z,23.90
2023-04-21T09:06:16.433Z,17.80
2023-04-21T09:07:15.766Z,21.90
2023-04-21T09:08:15.830Z,22.00
2023-04-21T09:09:15.863Z,24.10
2023-04-21T09:10:15.921Z,24.30
2023-04-21T09:11:15.971Z,25.30
2023-04-21T09:12:15.981Z,30.00
2023-04-21T09:13:16.039Z,18.80
2023-04-21T09:14:16.061Z,17.20
2023-04-21T09:15:16.087Z,20.30
2023-04-21T09:16:16.127Z,25.20
2023-04-21T09:17:16.202Z,22.60
2023-04-21T09:18:16.223Z,24.10
2023-04-21T09:19:16.292Z,17.80
2023-04-21T09:20:16.285Z,15.10
2023-04-21T09:21:16.353Z,25.50
2023-04-21T09:22:16.353Z,15.80
2023-04-21T09:23:16.394Z,20.60
2023-04-21T09:24:16.449Z,22.00
2023-04-21T09:25:16.457Z,16.70
2023-04-21T09:26:16.479Z,17.10
2023-04-21T09:27:16.496Z,18.10
2023-04-21T09:28:16.518Z,19.60
2023-04-21T09:29:16.614Z,21.00
2023-04-21T09:30:16.570Z,18.00
2023-04-21T09:31:16.777Z,17.70
2023-04-21T09:32:16.548Z,21.00
2023-04-21T09:33:27.282Z,17.80
2023-04-21T09:34:17.567Z,16.60
2023-04-21T09:35:16.573Z,17.60
2023-04-21T09:36:16.562Z,14.40
2023-04-21T09:37:18.782Z,19.60
2023-04-21T09:38:16.600Z,14.10
2023-04-21T09:40:16.617Z,19.80
2023-04-21T09:41:16.613Z,14.50
2023-04-21T09:42:16.622Z,19.40
2023-04-21T09:43:16.627Z,18.80
2023-04-21T09:44:16.660Z,20.00
2023-04-21T09:45:32.831Z,16.80
2023-04-21T09:46:17.635Z,20.50
2023-04-21T09:47:16.631Z,13.90
2023-04-21T09:48:16.613Z,19.30
2023-04-21T09:49:16.656Z,14.60
2023-04-21T09:50:20.615Z,16.20
2023-04-21T09:52:18.970Z,15.10
2023-04-21T09:53:16.906Z,18.60
2023-04-21T09:55:16.824Z,24.70
2023-04-21T09:56:16.830Z,21.60
2023-04-21T09:57:16.825Z,19.90
2023-04-21T09:58:16.802Z,17.10
2023-04-21T09:59:16.794Z,12.90
2023-04-21T10:00:16.810Z,17.40
2023-04-21T10:01:16.849Z,21.80
2023-04-21T10:02:16.963Z,20.60
2023-04-21T10:03:16.945Z,19.90
2023-04-21T10:04:17.123Z,16.10
2023-04-21T10:05:16.908Z,18.00
2023-04-21T10:06:16.888Z,17.70
2023-04-21T10:07:16.871Z,22.90
2023-04-21T10:08:16.847Z,21.40
2023-04-21T10:09:16.862Z,17.40
2023-04-21T10:10:16.890Z,24.10
2023-04-21T10:11:16.848Z,19.70
2023-04-21T10:12:16.853Z,20.40
2023-04-21T10:13:16.828Z,13.40
2023-04-21T10:14:16.817Z,15.60
2023-04-21T10:15:16.795Z,15.20
2023-04-21T10:16:16.816Z,16.00
2023-04-21T10:17:18.025Z,15.40
2023-04-21T10:18:16.838Z,14.80
2023-04-21T10:19:16.960Z,13.20
2023-04-21T10:20:16.838Z,15.60
2023-04-21T10:21:16.852Z,13.50
2023-04-21T10:22:16.818Z,14.90
2023-04-21T10:23:16.817Z,14.30
2023-04-21T10:24:16.999Z,15.10
2023-04-21T10:25:16.882Z,20.70
2023-04-21T10:26:16.867Z,14.00
2023-04-21T10:27:16.863Z,18.60
2023-04-21T10:28:16.877Z,13.80
2023-04-21T10:29:16.867Z,12.20
2023-04-21T10:30:17.020Z,13.10
2023-04-21T10:31:17.000Z,14.90
2023-04-21T10:32:17.016Z,14.30
2023-04-21T10:33:16.956Z,12.00
2023-04-21T10:34:16.966Z,16.70
2023-04-21T10:35:16.976Z,13.40
2023-04-21T10:36:16.964Z,16.90
2023-04-21T10:37:17.142Z,15.50
2023-04-21T10:38:17.039Z,17.10
2023-04-21T10:39:17.133Z,15.30
2023-04-21T10:40:17.046Z,13.60
2023-04-21T10:41:17.095Z,11.90
2023-04-21T10:42:17.125Z,16.80
2023-04-21T10:43:17.104Z,17.60
2023-04-21T10:44:17.186Z,16.90
2023-04-21T10:45:17.181Z,16.40
2023-04-21T10:46:17.215Z,14.00
2023-04-21T10:47:17.303Z,14.40
2023-04-21T10:48:17.155Z,12.40
2023-04-21T10:49:17.171Z,15.70
2023-04-21T10:50:17.177Z,23.20
2023-04-21T10:51:17.188Z,22.00
2023-04-21T10:52:17.175Z,13.90
2023-04-21T10:53:17.195Z,12.30
2023-04-21T10:54:17.390Z,15.70
2023-04-21T10:55:17.217Z,16.70
2023-04-21T10:56:17.172Z,16.00
2023-04-21T10:57:17.173Z,15.00
2023-04-21T10:58:17.154Z,14.80
2023-04-21T10:59:17.156Z,15.10
2023-04-21T11:00:17.179Z,15.00
2023-04-21T11:01:17.221Z,14.40
2023-04-21T11:02:24.296Z,15.50
2023-04-21T11:03:17.381Z,17.70
2023-04-21T11:04:17.372Z,13.70
2023-04-21T11:05:17.221Z,12.30
2023-04-21T11:06:17.232Z,15.60
2023-04-21T11:07:17.233Z,15.80
2023-04-21T11:08:17.222Z,14.00
2023-04-21T11:09:17.231Z,14.80
2023-04-21T11:10:17.220Z,19.50
2023-04-21T11:11:17.214Z,15.30
2023-04-21T11:12:17.205Z,17.30
2023-04-21T11:13:17.184Z,15.80
2023-04-21T11:14:17.335Z,16.90
2023-04-21T11:15:17.292Z,15.90
2023-04-21T11:16:17.222Z,17.20
2023-04-21T11:17:17.202Z,18.60
2023-04-21T11:18:17.193Z,12.60
2023-04-21T11:19:17.191Z,11.80
2023-04-21T11:20:17.202Z,17.00
2023-04-21T11:21:17.196Z,16.10
2023-04-21T11:22:17.186Z,14.60
2023-04-21T11:23:17.193Z,14.70
2023-04-21T11:24:17.387Z,14.10
2023-04-21T11:25:17.232Z,16.50
2023-04-21T11:26:17.232Z,11.70
2023-04-21T11:27:17.216Z,15.80
2023-04-21T11:28:17.190Z,18.30
2023-04-21T11:29:17.189Z,11.40
2023-04-21T11:30:17.184Z,14.20
2023-04-21T11:31:17.217Z,19.40
2023-04-21T11:32:17.190Z,13.70
2023-04-21T11:33:17.187Z,15.30
2023-04-21T11:34:17.248Z,14.10
2023-04-21T11:35:17.214Z,14.20
2023-04-21T11:36:17.230Z,19.30
2023-04-21T11:37:17.227Z,12.50
2023-04-21T11:38:17.240Z,17.20
2023-04-21T11:39:17.748Z,16.70
2023-04-21T11:40:17.281Z,13.20
2023-04-21T11:41:17.404Z,12.20
2023-04-21T11:42:17.401Z,15.80
2023-04-21T11:43:17.630Z,13.20
2023-04-21T11:44:17.437Z,21.00
2023-04-21T11:45:19.178Z,12.80
2023-04-21T11:46:17.543Z,14.20
2023-04-21T11:47:17.576Z,12.80
2023-04-21T11:48:17.556Z,13.10
2023-04-21T11:49:17.544Z,17.30
2023-04-21T11:50:17.539Z,15.60
2023-04-21T11:51:19.267Z,16.10
2023-04-21T11:52:17.584Z,17.90
2023-04-21T11:53:17.600Z,15.60
2023-04-21T11:54:17.619Z,20.30
2023-04-21T11:55:17.624Z,14.50
2023-04-21T11:56:17.666Z,16.50
2023-04-21T11:57:17.669Z,18.10
2023-04-21T11:58:17.675Z,16.30
2023-04-21T11:59:17.710Z,14.60
2023-04-21T12:00:17.703Z,18.10
2023-04-21T12:01:17.743Z,16.10
2023-04-21T12:02:17.851Z,18.20
2023-04-21T12:03:17.856Z,23.30
2023-04-21T12:04:17.948Z,23.60
2023-04-21T12:05:17.869Z,19.20
2023-04-21T12:06:17.951Z,20.30
2023-04-21T12:07:17.889Z,14.70
2023-04-21T12:08:17.925Z,18.50
2023-04-21T12:09:17.976Z,21.50
2023-04-21T12:10:18.026Z,18.10
2023-04-21T12:11:17.998Z,17.50
2023-04-21T12:12:18.015Z,20.10
2023-04-21T12:13:18.270Z,29.20
2023-04-21T12:14:18.073Z,17.90
2023-04-21T12:15:18.233Z,15.50
2023-04-21T12:16:18.183Z,22.30
2023-04-21T12:17:18.181Z,17.50
2023-04-21T12:18:18.199Z,13.70
2023-04-21T12:19:18.233Z,20.40
2023-04-21T12:20:18.239Z,20.80
2023-04-21T12:21:18.259Z,14.20
2023-04-21T12:22:18.325Z,19.20
2023-04-21T12:23:18.353Z,23.70
2023-04-21T12:24:18.380Z,12.40
2023-04-21T12:25:18.429Z,20.40
2023-04-21T12:26:18.414Z,12.40
2023-04-21T12:27:18.428Z,18.60
2023-04-21T12:28:18.443Z,16.20
2023-04-21T12:29:18.481Z,16.60
2023-04-21T12:30:18.499Z,17.70
2023-04-21T12:31:18.586Z,11.30
2023-04-21T12:32:18.633Z,12.60
2023-04-21T12:33:18.688Z,13.40
2023-04-21T12:34:18.721Z,13.90
2023-04-21T12:35:18.742Z,11.30
2023-04-21T12:36:18.754Z,15.60
2023-04-21T12:37:19.765Z,12.70
2023-04-21T12:38:18.760Z,14.20
2023-04-21T12:39:18.825Z,12.80
2023-04-21T12:40:18.820Z,16.00
2023-04-21T12:41:18.850Z,11.20
2023-04-21T12:42:18.856Z,15.10
2023-04-21T12:43:18.912Z,10.60
2023-04-21T12:44:18.920Z,11.50
2023-04-21T12:45:18.930Z,12.00
2023-04-21T12:46:18.982Z,17.60
2023-04-21T12:47:18.947Z,12.40
2023-04-21T12:48:19.007Z,13.10
2023-04-21T12:49:18.981Z,12.50
2023-04-21T12:50:19.006Z,13.20
2023-04-21T12:51:19.024Z,13.20
2023-04-21T12:52:19.044Z,15.00
2023-04-21T12:53:19.040Z,11.90
2023-04-21T12:54:19.070Z,15.70
2023-04-21T12:55:19.086Z,12.00
2023-04-21T12:56:19.108Z,10.00
2023-04-21T12:57:19.132Z,15.60
2023-04-21T12:58:19.157Z,12.90